Minto, Canada
Current Conditions -  °F | °C
As of 8:00 AM on Thursday 23 Oct 2014 (Local Time) from CYBR Reporting Station
Few Clouds Few Clouds  
Wind Chill: 32°   Ceiling: Unl
Heat Index: 37°   Visibility: 15mi
Dew Point: 36°   Wind: 7mph
Humidity: 93%   Direction: 240°WSW
Pressure: 29.78"   Gusts: NA
Location:  49.4°N, 100.02°W
Report Text: CYBR 231300Z 24006KT 15SM FEW100 03/02 A2978 RMK AC1 SLP098
Loading
Personal Weather Stations






























Interactive Weather Map New forecast layout! Learn more

10-Day Weather Forecast

Advertisements
Track Severe Weather on mobile